sensor_id;sensor_type;location;lat;lon;timestamp;pressure;altitude;pressure_sealevel;temperature;humidity
49216;BME280;45943;53.148;8.204;2023-02-03T00:00:34;102008.16;;;9.33;100.00
49216;BME280;45943;53.148;8.204;2023-02-03T00:03:00;101992.91;;;9.35;100.00
49216;BME280;45943;53.148;8.204;2023-02-03T00:05:26;102001.78;;;9.36;100.00
49216;BME280;45943;53.148;8.204;2023-02-03T00:07:53;102003.75;;;9.32;100.00
49216;BME280;45943;53.148;8.204;2023-02-03T00:10:19;102001.09;;;9.32;100.00
49216;BME280;45943;53.148;8.204;2023-02-03T00:12:49;101998.06;;;9.38;100.00
49216;BME280;45943;53.148;8.204;2023-02-03T00:15:19;102004.13;;;9.26;100.00
49216;BME280;45943;53.148;8.204;2023-02-03T00:17:47;101991.09;;;9.36;100.00
49216;BME280;45943;53.148;8.204;2023-02-03T00:20:14;101994.19;;;9.28;100.00
49216;BME280;45943;53.148;8.204;2023-02-03T00:22:40;101995.38;;;9.38;100.00
49216;BME280;45943;53.148;8.204;2023-02-03T00:25:06;101995.28;;;9.40;100.00
49216;BME280;45943;53.148;8.204;2023-02-03T00:27:32;102006.44;;;9.32;100.00
49216;BME280;45943;53.148;8.204;2023-02-03T00:29:58;101993.06;;;9.32;100.00
49216;BME280;45943;53.148;8.204;2023-02-03T00:32:24;101999.97;;;9.36;100.00
49216;BME280;45943;53.148;8.204;2023-02-03T00:34:50;101999.88;;;9.38;100.00
49216;BME280;45943;53.148;8.204;2023-02-03T00:37:16;102001.44;;;9.42;100.00
49216;BME280;45943;53.148;8.204;2023-02-03T00:39:42;101992.72;;;9.38;100.00
49216;BME280;45943;53.148;8.204;2023-02-03T00:42:08;101998.84;;;9.40;100.00
49216;BME280;45943;53.148;8.204;2023-02-03T00:44:34;101997.97;;;9.40;100.00
49216;BME280;45943;53.148;8.204;2023-02-03T00:47:00;101980.09;;;9.40;100.00
49216;BME280;45943;53.148;8.204;2023-02-03T00:49:26;101983.72;;;9.39;100.00
49216;BME280;45943;53.148;8.204;2023-02-03T00:51:52;101983.38;;;9.45;100.00
49216;BME280;45943;53.148;8.204;2023-02-03T00:54:19;101968.75;;;9.51;100.00
49216;BME280;45943;53.148;8.204;2023-02-03T00:56:45;101976.69;;;9.53;100.00
49216;BME280;45943;53.148;8.204;2023-02-03T00:59:11;101969.03;;;9.46;100.00
49216;BME280;45943;53.148;8.204;2023-02-03T01:01:37;101962.72;;;9.47;100.00
49216;BME280;45943;53.148;8.204;2023-02-03T01:04:03;101978.78;;;9.47;100.00
49216;BME280;45943;53.148;8.204;2023-02-03T01:06:29;101986.47;;;9.54;100.00
49216;BME280;45943;53.148;8.204;2023-02-03T01:08:55;101976.22;;;9.46;100.00
49216;BME280;45943;53.148;8.204;2023-02-03T01:11:22;101961.16;;;9.43;100.00
49216;BME280;45943;53.148;8.204;2023-02-03T01:13:50;101958.91;;;9.52;100.00
49216;BME280;45943;53.148;8.204;2023-02-03T01:16:17;101944.50;;;9.54;100.00
49216;BME280;45943;53.148;8.204;2023-02-03T01:18:45;101950.19;;;9.48;100.00
49216;BME280;45943;53.148;8.204;2023-02-03T01:21:12;101949.59;;;9.43;100.00
49216;BME280;45943;53.148;8.204;2023-02-03T01:23:41;101942.25;;;9.46;100.00
49216;BME280;45943;53.148;8.204;2023-02-03T01:26:09;101933.06;;;9.51;100.00
49216;BME280;45943;53.148;8.204;2023-02-03T01:28:37;101933.69;;;9.56;100.00
49216;BME280;45943;53.148;8.204;2023-02-03T01:33:40;101909.47;;;9.57;100.00
49216;BME280;45943;53.148;8.204;2023-02-03T01:36:09;101910.34;;;9.58;100.00
49216;BME280;45943;53.148;8.204;2023-02-03T01:38:35;101917.31;;;9.60;100.00
49216;BME280;45943;53.148;8.204;2023-02-03T01:41:02;101924.94;;;9.52;100.00
49216;BME280;45943;53.148;8.204;2023-02-03T01:46:03;101899.13;;;9.51;100.00
49216;BME280;45943;53.148;8.204;2023-02-03T01:48:35;101884.88;;;9.51;100.00
49216;BME280;45943;53.148;8.204;2023-02-03T01:51:01;101897.63;;;9.61;100.00
49216;BME280;45943;53.148;8.204;2023-02-03T01:53:29;101902.97;;;9.61;100.00
49216;BME280;45943;53.148;8.204;2023-02-03T01:55:56;101904.13;;;9.57;100.00
49216;BME280;45943;53.148;8.204;2023-02-03T01:58:26;101905.19;;;9.55;100.00
49216;BME280;45943;53.148;8.204;2023-02-03T02:00:56;101909.94;;;9.49;100.00
49216;BME280;45943;53.148;8.204;2023-02-03T02:03:33;101886.34;;;9.56;100.00
49216;BME280;45943;53.148;8.204;2023-02-03T02:06:10;101883.66;;;9.56;100.00
49216;BME280;45943;53.148;8.204;2023-02-03T02:08:39;101890.34;;;9.63;100.00
49216;BME280;45943;53.148;8.204;2023-02-03T02:11:08;101902.56;;;9.53;100.00
49216;BME280;45943;53.148;8.204;2023-02-03T02:13:35;101915.88;;;9.55;100.00
49216;BME280;45943;53.148;8.204;2023-02-03T02:29:58;101919.59;;;9.52;100.00
49216;BME280;45943;53.148;8.204;2023-02-03T02:35:31;101900.03;;;9.66;100.00
49216;BME280;45943;53.148;8.204;2023-02-03T02:38:20;101897.91;;;9.57;100.00
49216;BME280;45943;53.148;8.204;2023-02-03T02:41:09;101898.03;;;9.69;100.00
49216;BME280;45943;53.148;8.204;2023-02-03T02:43:40;101893.31;;;9.59;100.00
49216;BME280;45943;53.148;8.204;2023-02-03T02:46:11;101889.69;;;9.60;100.00
49216;BME280;45943;53.148;8.204;2023-02-03T02:49:02;101892.00;;;9.66;100.00
49216;BME280;45943;53.148;8.204;2023-02-03T02:51:39;101882.16;;;9.66;100.00
49216;BME280;45943;53.148;8.204;2023-02-03T02:54:09;101879.63;;;9.63;100.00
49216;BME280;45943;53.148;8.204;2023-02-03T02:56:39;101864.06;;;9.70;100.00
49216;BME280;45943;53.148;8.204;2023-02-03T02:59:08;101854.66;;;9.63;100.00
49216;BME280;45943;53.148;8.204;2023-02-03T03:01:34;101850.34;;;9.60;100.00
49216;BME280;45943;53.148;8.204;2023-02-03T03:04:01;101849.25;;;9.64;100.00
49216;BME280;45943;53.148;8.204;2023-02-03T03:06:49;101850.09;;;9.65;100.00
49216;BME280;45943;53.148;8.204;2023-02-03T03:09:23;101849.69;;;9.57;100.00
49216;BME280;45943;53.148;8.204;2023-02-03T03:11:58;101854.59;;;9.64;100.00
49216;BME280;45943;53.148;8.204;2023-02-03T03:14:33;101855.53;;;9.63;100.00
49216;BME280;45943;53.148;8.204;2023-02-03T03:17:03;101836.88;;;9.62;100.00
49216;BME280;45943;53.148;8.204;2023-02-03T03:19:40;101841.09;;;9.66;100.00
49216;BME280;45943;53.148;8.204;2023-02-03T03:22:13;101844.66;;;9.66;100.00
49216;BME280;45943;53.148;8.204;2023-02-03T03:24:46;101836.41;;;9.69;100.00
49216;BME280;45943;53.148;8.204;2023-02-03T03:27:19;101839.09;;;9.69;100.00
49216;BME280;45943;53.148;8.204;2023-02-03T03:29:52;101840.91;;;9.69;100.00
49216;BME280;45943;53.148;8.204;2023-02-03T03:32:21;101832.78;;;9.70;100.00
49216;BME280;45943;53.148;8.204;2023-02-03T03:34:48;101832.88;;;9.69;100.00
49216;BME280;45943;53.148;8.204;2023-02-03T03:37:23;101829.22;;;9.70;100.00
49216;BME280;45943;53.148;8.204;2023-02-03T03:42:49;101826.66;;;9.68;100.00
49216;BME280;45943;53.148;8.204;2023-02-03T03:45:27;101820.53;;;9.66;100.00
49216;BME280;45943;53.148;8.204;2023-02-03T03:48:04;101808.75;;;9.69;100.00
49216;BME280;45943;53.148;8.204;2023-02-03T03:50:42;101821.19;;;9.70;100.00
49216;BME280;45943;53.148;8.204;2023-02-03T03:53:14;101823.97;;;9.68;100.00
49216;BME280;45943;53.148;8.204;2023-02-03T03:55:42;101830.38;;;9.66;100.00
49216;BME280;45943;53.148;8.204;2023-02-03T03:58:14;101844.91;;;9.62;100.00
49216;BME280;45943;53.148;8.204;2023-02-03T04:00:45;101836.72;;;9.65;100.00
49216;BME280;45943;53.148;8.204;2023-02-03T04:03:14;101841.25;;;9.63;100.00
49216;BME280;45943;53.148;8.204;2023-02-03T04:05:45;101843.94;;;9.63;100.00
49216;BME280;45943;53.148;8.204;2023-02-03T04:08:11;101845.97;;;9.59;100.00
49216;BME280;45943;53.148;8.204;2023-02-03T04:10:38;101847.78;;;9.59;100.00
49216;BME280;45943;53.148;8.204;2023-02-03T04:13:06;101837.06;;;9.59;100.00
49216;BME280;45943;53.148;8.204;2023-02-03T04:15:33;101840.91;;;9.69;100.00
49216;BME280;45943;53.148;8.204;2023-02-03T04:17:59;101837.66;;;9.64;100.00
49216;BME280;45943;53.148;8.204;2023-02-03T04:20:26;101824.84;;;9.69;100.00
49216;BME280;45943;53.148;8.204;2023-02-03T04:22:53;101836.59;;;9.66;100.00
49216;BME280;45943;53.148;8.204;2023-02-03T04:25:19;101824.94;;;9.67;100.00
49216;BME280;45943;53.148;8.204;2023-02-03T04:27:45;101810.69;;;9.67;100.00
49216;BME280;45943;53.148;8.204;2023-02-03T04:30:12;101794.09;;;9.60;100.00
49216;BME280;45943;53.148;8.204;2023-02-03T04:32:38;101802.75;;;9.65;100.00
49216;BME280;45943;53.148;8.204;2023-02-03T04:35:05;101783.47;;;9.73;100.00
49216;BME280;45943;53.148;8.204;2023-02-03T04:37:31;101780.34;;;9.81;100.00
49216;BME280;45943;53.148;8.204;2023-02-03T04:39:58;101777.09;;;9.75;100.00
49216;BME280;45943;53.148;8.204;2023-02-03T04:42:24;101782.81;;;9.69;100.00
49216;BME280;45943;53.148;8.204;2023-02-03T04:44:50;101778.44;;;9.68;100.00
49216;BME280;45943;53.148;8.204;2023-02-03T04:47:17;101754.53;;;9.65;100.00
49216;BME280;45943;53.148;8.204;2023-02-03T04:49:43;101763.00;;;9.72;100.00
49216;BME280;45943;53.148;8.204;2023-02-03T04:52:10;101789.81;;;9.72;100.00
49216;BME280;45943;53.148;8.204;2023-02-03T04:54:37;101798.25;;;9.80;100.00
49216;BME280;45943;53.148;8.204;2023-02-03T04:57:03;101794.13;;;9.74;100.00
49216;BME280;45943;53.148;8.204;2023-02-03T04:59:29;101787.72;;;9.77;100.00
49216;BME280;45943;53.148;8.204;2023-02-03T05:01:55;101784.19;;;9.76;100.00
49216;BME280;45943;53.148;8.204;2023-02-03T05:04:21;101789.25;;;9.81;100.00
49216;BME280;45943;53.148;8.204;2023-02-03T05:06:47;101781.50;;;9.76;100.00
49216;BME280;45943;53.148;8.204;2023-02-03T05:09:14;101786.56;;;9.81;100.00
49216;BME280;45943;53.148;8.204;2023-02-03T05:11:40;101774.97;;;9.81;100.00
49216;BME280;45943;53.148;8.204;2023-02-03T05:14:06;101782.34;;;9.77;100.00
49216;BME280;45943;53.148;8.204;2023-02-03T05:16:32;101789.25;;;9.81;100.00
49216;BME280;45943;53.148;8.204;2023-02-03T05:18:58;101793.47;;;9.85;100.00
49216;BME280;45943;53.148;8.204;2023-02-03T05:21:24;101786.66;;;9.80;100.00
49216;BME280;45943;53.148;8.204;2023-02-03T05:23:50;101764.94;;;9.84;100.00
49216;BME280;45943;53.148;8.204;2023-02-03T05:26:16;101777.38;;;9.85;100.00
49216;BME280;45943;53.148;8.204;2023-02-03T05:28:42;101773.66;;;9.88;100.00
49216;BME280;45943;53.148;8.204;2023-02-03T05:31:08;101792.31;;;9.89;100.00
49216;BME280;45943;53.148;8.204;2023-02-03T05:33:34;101763.13;;;9.85;100.00
49216;BME280;45943;53.148;8.204;2023-02-03T05:36:00;101775.84;;;9.95;100.00
49216;BME280;45943;53.148;8.204;2023-02-03T05:38:26;101776.41;;;10.00;100.00
49216;BME280;45943;53.148;8.204;2023-02-03T05:40:52;101773.34;;;9.92;100.00
49216;BME280;45943;53.148;8.204;2023-02-03T05:43:36;101765.22;;;9.94;100.00
49216;BME280;45943;53.148;8.204;2023-02-03T05:46:03;101781.69;;;9.88;100.00
49216;BME280;45943;53.148;8.204;2023-02-03T05:48:30;101783.88;;;9.81;100.00
49216;BME280;45943;53.148;8.204;2023-02-03T05:50:57;101778.22;;;9.71;100.00
49216;BME280;45943;53.148;8.204;2023-02-03T05:53:23;101774.13;;;9.80;100.00
49216;BME280;45943;53.148;8.204;2023-02-03T05:55:49;101757.28;;;9.78;100.00
49216;BME280;45943;53.148;8.204;2023-02-03T05:58:15;101761.88;;;9.76;100.00
49216;BME280;45943;53.148;8.204;2023-02-03T06:00:41;101749.44;;;9.75;100.00
49216;BME280;45943;53.148;8.204;2023-02-03T06:03:07;101750.88;;;9.81;100.00
49216;BME280;45943;53.148;8.204;2023-02-03T06:05:33;101744.06;;;9.89;100.00
49216;BME280;45943;53.148;8.204;2023-02-03T06:08:02;101731.44;;;9.91;100.00
49216;BME280;45943;53.148;8.204;2023-02-03T06:10:28;101736.41;;;9.83;100.00
49216;BME280;45943;53.148;8.204;2023-02-03T06:12:54;101737.00;;;9.88;100.00
49216;BME280;45943;53.148;8.204;2023-02-03T06:15:20;101737.66;;;9.92;100.00
49216;BME280;45943;53.148;8.204;2023-02-03T06:17:46;101743.69;;;9.95;100.00
49216;BME280;45943;53.148;8.204;2023-02-03T06:20:14;101723.28;;;9.93;100.00
49216;BME280;45943;53.148;8.204;2023-02-03T06:22:42;101738.34;;;9.95;100.00
49216;BME280;45943;53.148;8.204;2023-02-03T06:25:09;101732.75;;;9.98;100.00
49216;BME280;45943;53.148;8.204;2023-02-03T06:27:35;101741.13;;;9.94;100.00
49216;BME280;45943;53.148;8.204;2023-02-03T06:30:02;101730.47;;;10.06;100.00
49216;BME280;45943;53.148;8.204;2023-02-03T06:32:29;101739.25;;;10.09;100.00
49216;BME280;45943;53.148;8.204;2023-02-03T06:34:54;101739.09;;;9.97;100.00
49216;BME280;45943;53.148;8.204;2023-02-03T06:37:20;101757.28;;;10.06;100.00
49216;BME280;45943;53.148;8.204;2023-02-03T06:39:46;101736.56;;;10.09;100.00
49216;BME280;45943;53.148;8.204;2023-02-03T06:42:12;101746.44;;;10.08;100.00
49216;BME280;45943;53.148;8.204;2023-02-03T06:44:39;101740.69;;;10.14;100.00
49216;BME280;45943;53.148;8.204;2023-02-03T06:47:05;101763.19;;;10.12;100.00
49216;BME280;45943;53.148;8.204;2023-02-03T06:49:31;101747.19;;;10.10;100.00
49216;BME280;45943;53.148;8.204;2023-02-03T06:51:57;101741.66;;;10.13;100.00
49216;BME280;45943;53.148;8.204;2023-02-03T06:54:23;101729.88;;;10.16;100.00
49216;BME280;45943;53.148;8.204;2023-02-03T06:56:49;101728.81;;;10.18;100.00
49216;BME280;45943;53.148;8.204;2023-02-03T06:59:15;101723.81;;;10.12;100.00
49216;BME280;45943;53.148;8.204;2023-02-03T07:01:41;101712.50;;;10.21;100.00
49216;BME280;45943;53.148;8.204;2023-02-03T07:04:07;101713.41;;;10.22;100.00
49216;BME280;45943;53.148;8.204;2023-02-03T07:06:34;101717.88;;;10.21;100.00
49216;BME280;45943;53.148;8.204;2023-02-03T07:09:01;101716.34;;;10.17;100.00
49216;BME280;45943;53.148;8.204;2023-02-03T07:11:28;101714.19;;;10.24;100.00
49216;BME280;45943;53.148;8.204;2023-02-03T07:13:55;101723.09;;;10.24;100.00
49216;BME280;45943;53.148;8.204;2023-02-03T07:16:21;101710.72;;;10.22;100.00
49216;BME280;45943;53.148;8.204;2023-02-03T07:18:48;101722.88;;;10.27;100.00
49216;BME280;45943;53.148;8.204;2023-02-03T07:21:14;101716.34;;;10.31;100.00
49216;BME280;45943;53.148;8.204;2023-02-03T07:23:41;101708.41;;;10.30;100.00
49216;BME280;45943;53.148;8.204;2023-02-03T07:26:08;101720.78;;;10.32;100.00
49216;BME280;45943;53.148;8.204;2023-02-03T07:28:35;101709.56;;;10.26;100.00
49216;BME280;45943;53.148;8.204;2023-02-03T07:31:02;101717.72;;;10.24;100.00
49216;BME280;45943;53.148;8.204;2023-02-03T07:33:35;101708.97;;;10.21;100.00
49216;BME280;45943;53.148;8.204;2023-02-03T07:36:02;101720.56;;;10.36;100.00
49216;BME280;45943;53.148;8.204;2023-02-03T07:38:28;101725.66;;;10.26;100.00
49216;BME280;45943;53.148;8.204;2023-02-03T07:40:54;101717.41;;;10.29;100.00
49216;BME280;45943;53.148;8.204;2023-02-03T07:43:21;101718.75;;;10.22;100.00
49216;BME280;45943;53.148;8.204;2023-02-03T07:45:47;101743.94;;;10.19;100.00
49216;BME280;45943;53.148;8.204;2023-02-03T07:48:13;101741.00;;;10.24;100.00
49216;BME280;45943;53.148;8.204;2023-02-03T07:50:39;101728.44;;;10.24;100.00
49216;BME280;45943;53.148;8.204;2023-02-03T07:53:05;101724.38;;;10.31;100.00
49216;BME280;45943;53.148;8.204;2023-02-03T07:55:33;101725.59;;;10.40;100.00
49216;BME280;45943;53.148;8.204;2023-02-03T07:58:02;101714.13;;;10.38;100.00
49216;BME280;45943;53.148;8.204;2023-02-03T08:00:28;101707.69;;;10.41;100.00
49216;BME280;45943;53.148;8.204;2023-02-03T08:02:54;101718.53;;;10.39;100.00
49216;BME280;45943;53.148;8.204;2023-02-03T08:05:20;101726.03;;;10.34;100.00
49216;BME280;45943;53.148;8.204;2023-02-03T08:07:46;101721.09;;;10.41;100.00
49216;BME280;45943;53.148;8.204;2023-02-03T08:10:12;101716.28;;;10.33;100.00
49216;BME280;45943;53.148;8.204;2023-02-03T08:12:40;101714.53;;;10.32;100.00
49216;BME280;45943;53.148;8.204;2023-02-03T08:15:07;101723.09;;;10.24;100.00
49216;BME280;45943;53.148;8.204;2023-02-03T08:17:34;101722.22;;;10.24;100.00
49216;BME280;45943;53.148;8.204;2023-02-03T08:20:00;101727.28;;;10.28;100.00
49216;BME280;45943;53.148;8.204;2023-02-03T08:22:26;101735.78;;;10.21;100.00
49216;BME280;45943;53.148;8.204;2023-02-03T08:24:52;101732.63;;;10.28;100.00
49216;BME280;45943;53.148;8.204;2023-02-03T08:27:19;101740.41;;;10.33;100.00
49216;BME280;45943;53.148;8.204;2023-02-03T08:29:47;101747.88;;;10.28;100.00
49216;BME280;45943;53.148;8.204;2023-02-03T08:32:17;101743.94;;;10.33;100.00
49216;BME280;45943;53.148;8.204;2023-02-03T08:34:44;101743.16;;;10.31;100.00
49216;BME280;45943;53.148;8.204;2023-02-03T08:37:11;101744.81;;;10.34;100.00
49216;BME280;45943;53.148;8.204;2023-02-03T08:39:38;101757.63;;;10.29;100.00
49216;BME280;45943;53.148;8.204;2023-02-03T08:42:04;101768.16;;;10.32;100.00
49216;BME280;45943;53.148;8.204;2023-02-03T08:44:30;101750.66;;;10.26;100.00
49216;BME280;45943;53.148;8.204;2023-02-03T08:46:57;101779.25;;;10.40;100.00
49216;BME280;45943;53.148;8.204;2023-02-03T08:49:25;101770.06;;;10.44;100.00
49216;BME280;45943;53.148;8.204;2023-02-03T08:51:52;101780.22;;;10.39;100.00
49216;BME280;45943;53.148;8.204;2023-02-03T08:54:19;101776.03;;;10.35;100.00
49216;BME280;45943;53.148;8.204;2023-02-03T08:56:45;101787.19;;;10.42;100.00
49216;BME280;45943;53.148;8.204;2023-02-03T08:59:11;101801.41;;;10.44;100.00
49216;BME280;45943;53.148;8.204;2023-02-03T09:01:38;101805.69;;;10.46;100.00
49216;BME280;45943;53.148;8.204;2023-02-03T09:04:10;101819.00;;;10.48;100.00
49216;BME280;45943;53.148;8.204;2023-02-03T09:06:37;101817.47;;;10.44;100.00
49216;BME280;45943;53.148;8.204;2023-02-03T09:09:04;101857.63;;;10.45;100.00
49216;BME280;45943;53.148;8.204;2023-02-03T09:11:30;101854.94;;;10.31;100.00
49216;BME280;45943;53.148;8.204;2023-02-03T09:13:56;101838.19;;;10.27;100.00
49216;BME280;45943;53.148;8.204;2023-02-03T09:16:22;101832.59;;;10.16;100.00
49216;BME280;45943;53.148;8.204;2023-02-03T09:18:49;101831.25;;;10.09;100.00
49216;BME280;45943;53.148;8.204;2023-02-03T09:21:16;101829.06;;;10.01;100.00
49216;BME280;45943;53.148;8.204;2023-02-03T09:23:42;101822.44;;;9.93;100.00
49216;BME280;45943;53.148;8.204;2023-02-03T09:26:11;101835.09;;;9.91;100.00
49216;BME280;45943;53.148;8.204;2023-02-03T09:28:38;101855.78;;;10.03;100.00
49216;BME280;45943;53.148;8.204;2023-02-03T09:31:05;101866.00;;;10.11;100.00
49216;BME280;45943;53.148;8.204;2023-02-03T09:33:36;101876.63;;;10.12;100.00
49216;BME280;45943;53.148;8.204;2023-02-03T09:36:03;101867.66;;;10.13;100.00
49216;BME280;45943;53.148;8.204;2023-02-03T09:38:33;101865.84;;;10.14;100.00
49216;BME280;45943;53.148;8.204;2023-02-03T09:43:48;101877.19;;;10.33;100.00
49216;BME280;45943;53.148;8.204;2023-02-03T09:46:41;101890.88;;;10.43;100.00
49216;BME280;45943;53.148;8.204;2023-02-03T09:49:17;101880.13;;;10.43;100.00
49216;BME280;45943;53.148;8.204;2023-02-03T09:51:52;101874.69;;;10.44;100.00
49216;BME280;45943;53.148;8.204;2023-02-03T09:57:12;101870.13;;;10.59;100.00
49216;BME280;45943;53.148;8.204;2023-02-03T09:59:42;101875.06;;;10.52;100.00
49216;BME280;45943;53.148;8.204;2023-02-03T10:04:38;101882.47;;;10.61;100.00
49216;BME280;45943;53.148;8.204;2023-02-03T10:07:14;101888.59;;;10.78;100.00
49216;BME280;45943;53.148;8.204;2023-02-03T10:18:04;101912.16;;;10.87;100.00
49216;BME280;45943;53.148;8.204;2023-02-03T10:23:19;101922.31;;;10.96;100.00
49216;BME280;45943;53.148;8.204;2023-02-03T10:25:52;101950.00;;;10.97;100.00
49216;BME280;45943;53.148;8.204;2023-02-03T10:28:21;101951.19;;;10.93;100.00
49216;BME280;45943;53.148;8.204;2023-02-03T10:30:49;101948.19;;;10.97;100.00
49216;BME280;45943;53.148;8.204;2023-02-03T10:33:23;101953.56;;;10.97;100.00
49216;BME280;45943;53.148;8.204;2023-02-03T10:41:17;101971.03;;;10.76;100.00
49216;BME280;45943;53.148;8.204;2023-02-03T10:43:45;101975.63;;;10.88;100.00
49216;BME280;45943;53.148;8.204;2023-02-03T10:46:15;101967.78;;;10.85;100.00
49216;BME280;45943;53.148;8.204;2023-02-03T10:48:43;101955.75;;;10.90;100.00
49216;BME280;45943;53.148;8.204;2023-02-03T10:51:11;101960.25;;;11.04;100.00
49216;BME280;45943;53.148;8.204;2023-02-03T10:53:48;101965.47;;;11.20;100.00
49216;BME280;45943;53.148;8.204;2023-02-03T10:56:24;101947.72;;;11.32;100.00
49216;BME280;45943;53.148;8.204;2023-02-03T10:58:55;101986.75;;;11.37;100.00
49216;BME280;45943;53.148;8.204;2023-02-03T11:06:57;101986.34;;;11.43;100.00
49216;BME280;45943;53.148;8.204;2023-02-03T11:09:30;102008.28;;;11.50;100.00
49216;BME280;45943;53.148;8.204;2023-02-03T11:12:14;101999.78;;;11.43;100.00
49216;BME280;45943;53.148;8.204;2023-02-03T11:14:42;101978.25;;;11.31;100.00
49216;BME280;45943;53.148;8.204;2023-02-03T11:17:19;101991.91;;;11.40;100.00
49216;BME280;45943;53.148;8.204;2023-02-03T11:19:55;102005.16;;;11.43;100.00
49216;BME280;45943;53.148;8.204;2023-02-03T11:22:38;101994.03;;;11.35;100.00
49216;BME280;45943;53.148;8.204;2023-02-03T11:25:18;101991.91;;;11.40;100.00
49216;BME280;45943;53.148;8.204;2023-02-03T11:27:50;101987.34;;;11.55;100.00
49216;BME280;45943;53.148;8.204;2023-02-03T11:30:19;101993.19;;;11.62;100.00
49216;BME280;45943;53.148;8.204;2023-02-03T11:32:49;102002.88;;;11.64;100.00
49216;BME280;45943;53.148;8.204;2023-02-03T11:35:26;101992.34;;;11.61;100.00
49216;BME280;45943;53.148;8.204;2023-02-03T11:37:58;102017.78;;;11.56;100.00
49216;BME280;45943;53.148;8.204;2023-02-03T11:40:29;102013.25;;;11.56;100.00
49216;BME280;45943;53.148;8.204;2023-02-03T11:45:27;102024.38;;;11.64;100.00
49216;BME280;45943;53.148;8.204;2023-02-03T11:48:23;102033.66;;;11.73;100.00
49216;BME280;45943;53.148;8.204;2023-02-03T11:53:38;102026.56;;;11.72;100.00
49216;BME280;45943;53.148;8.204;2023-02-03T11:57:04;102022.44;;;11.81;100.00
49216;BME280;45943;53.148;8.204;2023-02-03T11:59:43;102021.81;;;11.90;100.00
49216;BME280;45943;53.148;8.204;2023-02-03T12:02:36;102030.28;;;11.84;100.00
49216;BME280;45943;53.148;8.204;2023-02-03T12:13:44;102031.41;;;11.53;100.00
49216;BME280;45943;53.148;8.204;2023-02-03T12:19:09;102051.00;;;11.40;100.00
49216;BME280;45943;53.148;8.204;2023-02-03T12:21:49;102045.78;;;11.25;100.00
49216;BME280;45943;53.148;8.204;2023-02-03T12:27:35;102060.44;;;11.19;100.00
49216;BME280;45943;53.148;8.204;2023-02-03T12:30:12;102041.00;;;11.15;100.00
49216;BME280;45943;53.148;8.204;2023-02-03T12:32:51;102047.88;;;11.19;100.00
49216;BME280;45943;53.148;8.204;2023-02-03T12:35:24;102048.47;;;11.25;100.00
49216;BME280;45943;53.148;8.204;2023-02-03T12:38:01;102038.38;;;11.28;100.00
49216;BME280;45943;53.148;8.204;2023-02-03T12:43:38;102042.66;;;11.45;100.00
49216;BME280;45943;53.148;8.204;2023-02-03T12:48:44;102026.31;;;11.62;100.00
49216;BME280;45943;53.148;8.204;2023-02-03T12:51:23;102029.22;;;11.45;100.00
49216;BME280;45943;53.148;8.204;2023-02-03T12:53:57;102033.75;;;11.44;100.00
49216;BME280;45943;53.148;8.204;2023-02-03T12:56:30;102031.34;;;11.40;100.00
49216;BME280;45943;53.148;8.204;2023-02-03T12:59:05;102051.28;;;11.50;100.00
49216;BME280;45943;53.148;8.204;2023-02-03T13:01:42;102048.78;;;11.47;100.00
49216;BME280;45943;53.148;8.204;2023-02-03T13:04:22;102039.28;;;11.56;100.00
49216;BME280;45943;53.148;8.204;2023-02-03T13:07:02;102031.91;;;11.99;100.00
49216;BME280;45943;53.148;8.204;2023-02-03T13:09:41;102051.81;;;11.96;100.00
49216;BME280;45943;53.148;8.204;2023-02-03T13:17:45;102065.28;;;11.55;100.00
49216;BME280;45943;53.148;8.204;2023-02-03T13:20:20;102070.97;;;11.36;100.00
49216;BME280;45943;53.148;8.204;2023-02-03T13:22:49;102079.06;;;11.22;100.00
49216;BME280;45943;53.148;8.204;2023-02-03T13:25:17;102090.69;;;11.23;100.00
49216;BME280;45943;53.148;8.204;2023-02-03T13:28:10;102076.47;;;11.06;100.00
49216;BME280;45943;53.148;8.204;2023-02-03T13:30:59;102087.00;;;11.09;100.00
49216;BME280;45943;53.148;8.204;2023-02-03T13:42:27;102085.19;;;10.81;100.00
49216;BME280;45943;53.148;8.204;2023-02-03T13:45:08;102091.63;;;10.79;100.00
49216;BME280;45943;53.148;8.204;2023-02-03T13:47:45;102096.97;;;10.65;100.00
49216;BME280;45943;53.148;8.204;2023-02-03T13:50:21;102092.97;;;10.72;100.00
49216;BME280;45943;53.148;8.204;2023-02-03T13:55:41;102100.06;;;10.73;100.00
49216;BME280;45943;53.148;8.204;2023-02-03T13:58:19;102108.69;;;10.78;100.00
49216;BME280;45943;53.148;8.204;2023-02-03T14:03:20;102115.56;;;10.68;100.00
49216;BME280;45943;53.148;8.204;2023-02-03T14:06:00;102109.94;;;10.72;100.00
49216;BME280;45943;53.148;8.204;2023-02-03T14:19:07;102136.16;;;10.53;100.00
49216;BME280;45943;53.148;8.204;2023-02-03T14:21:54;102130.16;;;10.48;100.00
49216;BME280;45943;53.148;8.204;2023-02-03T14:24:24;102135.72;;;10.45;100.00
49216;BME280;45943;53.148;8.204;2023-02-03T14:26:57;102154.41;;;10.46;100.00
49216;BME280;45943;53.148;8.204;2023-02-03T14:32:10;102168.00;;;10.43;100.00
49216;BME280;45943;53.148;8.204;2023-02-03T14:34:41;102172.41;;;10.44;100.00
49216;BME280;45943;53.148;8.204;2023-02-03T14:37:10;102162.22;;;10.35;100.00
49216;BME280;45943;53.148;8.204;2023-02-03T14:39:40;102177.94;;;10.41;100.00
49216;BME280;45943;53.148;8.204;2023-02-03T14:42:27;102191.72;;;10.35;100.00
49216;BME280;45943;53.148;8.204;2023-02-03T14:47:57;102186.03;;;10.25;100.00
49216;BME280;45943;53.148;8.204;2023-02-03T14:53:29;102189.31;;;10.15;100.00
49216;BME280;45943;53.148;8.204;2023-02-03T14:56:26;102209.22;;;10.26;100.00
49216;BME280;45943;53.148;8.204;2023-02-03T14:59:16;102208.16;;;10.29;100.00